createdAt,value
2022-08-26T00:02:57.731Z,60.52
2022-08-26T00:08:02.295Z,60.53
2022-08-26T00:13:06.742Z,60.07
2022-08-26T00:18:21.787Z,59.44
2022-08-26T00:23:27.001Z,60.94
2022-08-26T00:28:33.211Z,61.09
2022-08-26T00:33:39.439Z,61.77
2022-08-26T00:38:44.206Z,59.45
2022-08-26T00:43:51.775Z,62.07
2022-08-26T00:49:12.368Z,63.49
2022-08-26T00:54:18.548Z,63.09
2022-08-26T00:59:23.602Z,62.51
2022-08-26T01:04:29.927Z,62.21
2022-08-26T01:09:34.459Z,63.49
2022-08-26T01:14:40.301Z,62.45
2022-08-26T01:19:50.236Z,61.66
2022-08-26T01:24:55.841Z,63.32
2022-08-26T01:30:01.632Z,62.34
2022-08-26T01:35:08.845Z,61.50
2022-08-26T01:40:21.686Z,63.54
2022-08-26T01:45:27.984Z,62.40
2022-08-26T01:50:34.560Z,61.40
2022-08-26T01:55:46.900Z,62.16
2022-08-26T02:00:53.993Z,62.91
2022-08-26T02:06:01.975Z,63.05
2022-08-26T02:11:07.737Z,62.51
2022-08-26T02:16:12.672Z,64.31
2022-08-26T02:21:18.363Z,63.00
2022-08-26T02:26:27.158Z,62.90
2022-08-26T02:31:31.427Z,62.22
2022-08-26T02:36:36.931Z,61.44
2022-08-26T02:41:45.173Z,60.19
2022-08-26T02:46:49.805Z,62.49
2022-08-26T02:51:54.034Z,63.23
2022-08-26T02:56:59.899Z,61.53
2022-08-26T03:02:04.686Z,62.31
2022-08-26T03:07:08.739Z,62.75
2022-08-26T03:12:14.681Z,63.44
2022-08-26T03:17:19.323Z,63.34
2022-08-26T03:22:23.421Z,63.04
2022-08-26T03:27:29.626Z,64.85
2022-08-26T03:32:36.944Z,63.58
2022-08-26T03:37:41.687Z,63.89
2022-08-26T03:42:47.857Z,64.34
2022-08-26T03:47:53.078Z,64.16
2022-08-26T03:52:57.593Z,65.60
2022-08-26T03:58:03.669Z,64.98
2022-08-26T04:03:09.917Z,63.68
2022-08-26T04:08:14.479Z,62.93
2022-08-26T04:13:20.037Z,63.20
2022-08-26T04:18:24.157Z,63.00
2022-08-26T04:23:28.312Z,59.09
2022-08-26T04:28:33.995Z,60.59
2022-08-26T04:33:41.588Z,61.45
2022-08-26T04:38:46.466Z,60.71
2022-08-26T04:43:52.034Z,61.42
2022-08-26T04:48:57.044Z,61.28
2022-08-26T04:54:02.139Z,62.25
2022-08-26T04:59:16.660Z,62.34
2022-08-26T05:04:22.251Z,61.45
2022-08-26T05:09:26.887Z,59.57
2022-08-26T05:14:32.432Z,59.15
2022-08-26T05:19:38.637Z,58.23
2022-08-26T05:24:47.854Z,59.39
2022-08-26T05:29:57.374Z,60.45
2022-08-26T05:35:01.876Z,60.74
2022-08-26T05:40:07.291Z,61.38
2022-08-26T05:45:14.770Z,60.62
2022-08-26T05:50:21.954Z,59.18
2022-08-26T05:55:27.016Z,58.55
2022-08-26T06:00:33.450Z,57.33
2022-08-26T06:05:40.558Z,57.20
2022-08-26T06:10:46.622Z,56.61
2022-08-26T06:15:55.561Z,55.13
2022-08-26T06:21:01.052Z,57.21
2022-08-26T06:26:17.230Z,54.05
2022-08-26T06:31:31.941Z,51.27
2022-08-26T06:36:37.271Z,53.60
2022-08-26T06:41:43.456Z,51.74
2022-08-26T06:46:58.363Z,49.97
2022-08-26T06:52:03.256Z,49.64
2022-08-26T06:57:07.335Z,47.49
2022-08-26T07:02:13.614Z,46.46
2022-08-26T07:07:19.431Z,47.25
2022-08-26T07:12:26.496Z,47.65
2022-08-26T07:17:32.145Z,47.94
2022-08-26T07:22:38.603Z,47.83
2022-08-26T07:27:44.514Z,46.69
2022-08-26T07:32:50.151Z,49.36
2022-08-26T07:37:57.025Z,47.95
2022-08-26T07:43:01.401Z,45.78
2022-08-26T07:48:08.353Z,47.59
2022-08-26T07:53:14.527Z,47.88
2022-08-26T07:58:22.368Z,48.50
2022-08-26T08:03:27.832Z,46.08
2022-08-26T08:08:32.972Z,47.09
2022-08-26T08:13:38.183Z,45.96
2022-08-26T08:18:43.863Z,46.11
2022-08-26T08:23:48.073Z,44.06
2022-08-26T08:28:52.442Z,42.74
2022-08-26T08:33:58.277Z,43.20
2022-08-26T08:39:02.278Z,42.20
2022-08-26T08:44:11.613Z,44.66
2022-08-26T08:49:18.224Z,42.44
2022-08-26T08:54:22.452Z,41.67
2022-08-26T08:59:28.491Z,41.09
2022-08-26T09:05:06.866Z,38.14
2022-08-26T09:10:27.876Z,35.95
2022-08-26T09:15:41.897Z,34.75
2022-08-26T09:20:56.733Z,32.89
2022-08-26T09:26:03.470Z,29.71
2022-08-26T09:31:17.450Z,29.61
2022-08-26T09:36:39.190Z,30.23
2022-08-26T09:41:45.239Z,31.08
2022-08-26T09:46:57.346Z,32.28
2022-08-26T09:52:27.976Z,32.45
2022-08-26T09:57:35.230Z,31.30
2022-08-26T10:02:47.450Z,31.17
2022-08-26T10:07:55.031Z,31.76
2022-08-26T10:13:13.750Z,33.31
2022-08-26T10:18:25.230Z,31.57
2022-08-26T10:28:54.992Z,31.00
2022-08-26T10:34:00.801Z,31.42
2022-08-26T10:39:12.347Z,31.22
2022-08-26T10:44:19.994Z,30.26
2022-08-26T10:49:24.375Z,29.65
2022-08-26T10:54:37.999Z,28.56
2022-08-26T10:59:54.924Z,26.96
2022-08-26T11:05:03.512Z,27.71
2022-08-26T11:10:25.342Z,27.56
2022-08-26T11:16:11.682Z,27.45
2022-08-26T11:21:50.613Z,26.51
2022-08-26T11:26:56.763Z,27.09
2022-08-26T11:32:00.905Z,27.76
2022-08-26T11:37:16.831Z,27.89
2022-08-26T11:42:31.194Z,27.80
2022-08-26T11:47:35.239Z,27.97
2022-08-26T11:52:39.836Z,27.39
2022-08-26T11:57:49.239Z,27.88
2022-08-26T12:02:55.750Z,29.48
2022-08-26T12:08:05.224Z,30.59
2022-08-26T12:13:21.833Z,30.98
2022-08-26T12:18:30.091Z,31.55
2022-08-26T12:23:43.380Z,29.67
2022-08-26T12:28:54.555Z,29.63
2022-08-26T12:34:00.692Z,28.70
2022-08-26T12:39:11.777Z,27.38
2022-08-26T12:44:53.934Z,27.60
2022-08-26T12:50:06.291Z,26.85
2022-08-26T12:55:24.021Z,26.72
2022-08-26T13:00:36.249Z,27.45
2022-08-26T13:05:40.649Z,27.67
2022-08-26T13:10:48.883Z,26.96
2022-08-26T13:15:54.367Z,26.94
2022-08-26T13:20:58.784Z,26.47
2022-08-26T13:26:03.962Z,26.35
2022-08-26T13:31:12.502Z,27.41
2022-08-26T13:36:17.510Z,27.21
2022-08-26T13:41:29.603Z,26.16
2022-08-26T13:46:35.405Z,27.59
2022-08-26T13:51:41.804Z,27.04
2022-08-26T13:56:46.042Z,28.29
2022-08-26T14:01:51.765Z,29.48
2022-08-26T14:06:58.909Z,30.29
2022-08-26T14:12:03.077Z,29.85
2022-08-26T14:17:09.829Z,30.53
2022-08-26T14:22:16.880Z,29.46
2022-08-26T14:27:21.188Z,28.28
2022-08-26T14:32:29.986Z,27.37
2022-08-26T14:37:34.443Z,27.97
2022-08-26T14:42:38.662Z,28.43
2022-08-26T14:47:46.620Z,28.22
2022-08-26T14:53:08.827Z,27.84
2022-08-26T14:58:13.269Z,27.64
2022-08-26T15:08:27.949Z,28.94
2022-08-26T15:13:32.534Z,28.74
2022-08-26T15:18:40.657Z,28.89
2022-08-26T15:23:47.888Z,29.54
2022-08-26T15:28:53.022Z,30.90
2022-08-26T15:33:59.612Z,31.53
2022-08-26T15:39:04.215Z,31.94
2022-08-26T15:44:09.127Z,32.11
2022-08-26T15:49:17.519Z,31.30
2022-08-26T15:54:24.727Z,32.09
2022-08-26T15:59:31.123Z,32.42
2022-08-26T16:04:36.968Z,33.21
2022-08-26T16:09:42.720Z,33.30
2022-08-26T16:14:47.759Z,34.38
2022-08-26T16:19:58.217Z,34.50
2022-08-26T16:25:02.270Z,34.17
2022-08-26T16:30:08.242Z,33.99
2022-08-26T16:35:14.489Z,34.49
2022-08-26T16:40:21.805Z,34.83
2022-08-26T16:45:26.887Z,40.84
2022-08-26T16:50:32.736Z,42.47
2022-08-26T16:55:37.419Z,43.33
2022-08-26T17:00:41.717Z,44.84
2022-08-26T17:05:47.269Z,45.09
2022-08-26T17:10:51.557Z,44.96
2022-08-26T17:16:00.003Z,43.93
2022-08-26T17:21:08.925Z,45.56
2022-08-26T17:26:14.085Z,46.90
2022-08-26T17:31:18.602Z,48.02
2022-08-26T17:36:27.638Z,46.42
2022-08-26T17:41:32.332Z,46.78
2022-08-26T17:46:38.503Z,47.01
2022-08-26T17:51:44.281Z,46.70
2022-08-26T17:56:49.117Z,48.31
2022-08-26T18:01:55.174Z,46.91
2022-08-26T18:07:01.571Z,48.38
2022-08-26T18:12:06.776Z,49.26
2022-08-26T18:17:13.144Z,50.23
2022-08-26T18:22:24.928Z,50.18
2022-08-26T18:27:29.147Z,51.12
2022-08-26T18:32:33.306Z,52.03
2022-08-26T18:37:39.119Z,52.13
2022-08-26T18:42:44.897Z,51.44
2022-08-26T18:47:53.780Z,51.19
2022-08-26T18:52:59.340Z,50.80
2022-08-26T18:58:03.478Z,52.44
2022-08-26T19:03:08.297Z,51.59
2022-08-26T19:08:24.916Z,52.57
2022-08-26T19:13:29.807Z,52.90
2022-08-26T19:18:34.095Z,53.06
2022-08-26T19:23:41.772Z,52.94
2022-08-26T19:28:49.690Z,54.11
2022-08-26T19:33:54.117Z,54.80
2022-08-26T19:39:00.324Z,54.39
2022-08-26T19:44:07.942Z,53.81
2022-08-26T19:49:12.196Z,54.31
2022-08-26T19:54:17.711Z,57.07
2022-08-26T19:59:22.301Z,57.34
2022-08-26T20:04:26.414Z,56.83
2022-08-26T20:09:35.467Z,56.01
2022-08-26T20:14:39.864Z,56.18
2022-08-26T20:20:01.633Z,57.59
2022-08-26T20:25:08.110Z,58.94
2022-08-26T20:30:13.157Z,58.47
2022-08-26T20:35:17.364Z,57.17
2022-08-26T20:40:23.248Z,56.88
2022-08-26T20:45:27.440Z,58.14
2022-08-26T20:50:32.750Z,57.68
2022-08-26T20:55:38.392Z,57.27
2022-08-26T21:00:42.578Z,58.02
2022-08-26T21:05:46.717Z,58.54
2022-08-26T21:10:53.014Z,58.03
2022-08-26T21:15:57.680Z,58.06
2022-08-26T21:21:05.237Z,58.91
2022-08-26T21:26:13.051Z,59.74
2022-08-26T21:31:19.264Z,59.18
2022-08-26T21:36:23.411Z,59.36
2022-08-26T21:41:29.619Z,59.02
2022-08-26T21:46:35.004Z,58.44
2022-08-26T21:51:42.906Z,58.57
2022-08-26T21:56:49.413Z,58.88
2022-08-26T22:01:54.668Z,59.32
2022-08-26T22:06:58.993Z,59.11
2022-08-26T22:12:05.156Z,59.78
2022-08-26T22:17:09.580Z,58.97
2022-08-26T22:22:13.575Z,58.96
2022-08-26T22:27:19.083Z,59.16
2022-08-26T22:32:23.485Z,58.88
2022-08-26T22:37:27.583Z,59.45
2022-08-26T22:42:34.467Z,59.77
2022-08-26T22:47:40.013Z,59.63
2022-08-26T22:52:44.584Z,59.07
2022-08-26T22:57:50.203Z,61.28
2022-08-26T23:02:54.443Z,62.18
2022-08-26T23:07:59.008Z,61.00
2022-08-26T23:13:05.470Z,60.46
2022-08-26T23:18:10.618Z,61.58
2022-08-26T23:23:14.942Z,61.64
2022-08-26T23:28:21.971Z,61.27
2022-08-26T23:33:46.019Z,61.33
2022-08-26T23:38:52.985Z,61.78
2022-08-26T23:44:03.289Z,62.33
2022-08-26T23:49:07.606Z,63.38
2022-08-26T23:54:11.944Z,62.39
2022-08-26T23:59:17.506Z,62.09
